Yue Chi — VRBS2 — position and weather

sailwx.info

Track history (hours):
 
Tides and Currents Weather Stations Pressure Air Temp Water Temp Dewpoint Dewpoint Depression Visibility Wind Speed Wind Dir Waves Ship Positions

Yue Chi

Last reported at 2017-Oct-14 04:20 UTC. Time now 2017-Oct-22 19:01 UTC.
Position N 34°59' E 139°42'.
Warning: this ship's position is 8 days out of date.

Length 187 m; draft 7.5 m.

Type: Ship (hazmat cat B). MMSI: 477105700.

Date/timePositionNaut miles runAvg speedWind from/ knotsBaromVisibWave heightAir tempDewpointWater temp
2017-Oct-14 04:20N 34°59' E 139°42'412.4
2017-Oct-14 04:00N 35°03' E 139°43'611.6
2017-Oct-14 03:30N 35°08' E 139°45'611.1
2017-Oct-14 03:00N 35°14' E 139°46'612.5
2017-Oct-14 02:30N 35°20' E 139°43'611.7
2017-Oct-14 02:00N 35°25' E 139°44'4 6.2
2017-Oct-14 01:21N 35°28' E 139°47'0 0.1
2017-Oct-14 01:00N 35°28' E 139°47'0 0.0
2017-Oct-14 00:30N 35°28' E 139°47'0 0.0
2017-Oct-13 23:54N 35°28' E 139°47'0 0.0
2017-Oct-13 23:30N 35°28' E 139°47'0 0.0
2017-Oct-13 23:00N 35°28' E 139°47'0 0.0
2017-Oct-13 17:33N 35°28' E 139°47'0 0.0
2017-Oct-13 17:12N 35°28' E 139°47'0 0.0
2017-Oct-13 16:54N 35°28' E 139°47'0 0.0
2017-Oct-13 16:21N 35°28' E 139°47'0 0.0
2017-Oct-13 15:51N 35°28' E 139°47'0 0.0
2017-Oct-13 15:27N 35°28' E 139°47'0 0.0
2017-Oct-13 14:06N 35°28' E 139°47'0 0.0
2017-Oct-13 13:51N 35°28' E 139°47'0 0.0
2017-Oct-13 13:27N 35°28' E 139°47'0 0.0
2017-Oct-13 12:51N 35°28' E 139°47'0 0.0
2017-Oct-13 12:27N 35°28' E 139°47'0 0.0
2017-Oct-13 11:12N 35°28' E 139°47'0 0.0
2017-Oct-13 05:57N 35°28' E 139°47'0 0.1
2017-Oct-13 00:26N 35°29' E 139°48'  
2017-Oct-10 06:23N 35°29' E 139°43'2 5.3
2017-Oct-10 05:59N 35°27' E 139°43'3 6.6
2017-Oct-10 05:30N 35°27' E 139°47'0 0.2
2017-Oct-10 04:56N 35°27' E 139°47'0 0.0
2017-Oct-10 04:29N 35°27' E 139°47'0 0.0
2017-Oct-10 03:59N 35°27' E 139°47'0 0.1
2017-Oct-10 03:29N 35°27' E 139°47'0 0.0
2017-Oct-10 02:53N 35°27' E 139°47'0 0.0
2017-Oct-10 00:35N 35°27' E 139°47'0 0.0
2017-Oct-10 00:29N 35°27' E 139°47'0 0.0
2017-Oct-09 23:59N 35°27' E 139°47'0 0.1
2017-Oct-09 22:38N 35°27' E 139°47'0 0.1
2017-Oct-09 22:26N 35°27' E 139°47'13 1.2
2017-Oct-09 11:44N 35°14' E 139°47'210.2
2017-Oct-09 11:30N 35°12' E 139°47'510.5
2017-Oct-09 11:00N 35°07' E 139°45'  
Track history (hours):
 
Tides and Currents Weather Stations Pressure Air Temp Water Temp Dewpoint Dewpoint Depression Visibility Wind Speed Wind Dir Waves Ship Positions

Yue Chi

Last reported at 2017-Oct-14 04:20 UTC. Time now 2017-Oct-22 19:01 UTC.
Position N 34°59' E 139°42'.
Warning: this ship's position is 8 days out of date.

Length 187 m; draft 7.5 m.

Type: Ship (hazmat cat B). MMSI: 477105700.

Date/timePositionNaut miles runAvg speedWind from/ knotsBaromVisibWave heightAir tempDewpointWater temp
2017-Oct-14 04:20N 34°59' E 139°42'412.4
2017-Oct-14 04:00N 35°03' E 139°43'611.6
2017-Oct-14 03:30N 35°08' E 139°45'611.1
2017-Oct-14 03:00N 35°14' E 139°46'612.5
2017-Oct-14 02:30N 35°20' E 139°43'611.7
2017-Oct-14 02:00N 35°25' E 139°44'4 6.2
2017-Oct-14 01:21N 35°28' E 139°47'0 0.1
2017-Oct-14 01:00N 35°28' E 139°47'0 0.0
2017-Oct-14 00:30N 35°28' E 139°47'0 0.0
2017-Oct-13 23:54N 35°28' E 139°47'0 0.0
2017-Oct-13 23:30N 35°28' E 139°47'0 0.0
2017-Oct-13 23:00N 35°28' E 139°47'0 0.0
2017-Oct-13 17:33N 35°28' E 139°47'0 0.0
2017-Oct-13 17:12N 35°28' E 139°47'0 0.0
2017-Oct-13 16:54N 35°28' E 139°47'0 0.0
2017-Oct-13 16:21N 35°28' E 139°47'0 0.0
2017-Oct-13 15:51N 35°28' E 139°47'0 0.0
2017-Oct-13 15:27N 35°28' E 139°47'0 0.0
2017-Oct-13 14:06N 35°28' E 139°47'0 0.0
2017-Oct-13 13:51N 35°28' E 139°47'0 0.0
2017-Oct-13 13:27N 35°28' E 139°47'0 0.0
2017-Oct-13 12:51N 35°28' E 139°47'0 0.0
2017-Oct-13 12:27N 35°28' E 139°47'0 0.0
2017-Oct-13 11:12N 35°28' E 139°47'0 0.0
2017-Oct-13 05:57N 35°28' E 139°47'0 0.1
2017-Oct-13 00:26N 35°29' E 139°48'  
2017-Oct-10 06:23N 35°29' E 139°43'2 5.3
2017-Oct-10 05:59N 35°27' E 139°43'3 6.6
2017-Oct-10 05:30N 35°27' E 139°47'0 0.2
2017-Oct-10 04:56N 35°27' E 139°47'0 0.0
2017-Oct-10 04:29N 35°27' E 139°47'0 0.0
2017-Oct-10 03:59N 35°27' E 139°47'0 0.1
2017-Oct-10 03:29N 35°27' E 139°47'0 0.0
2017-Oct-10 02:53N 35°27' E 139°47'0 0.0
2017-Oct-10 00:35N 35°27' E 139°47'0 0.0
2017-Oct-10 00:29N 35°27' E 139°47'0 0.0
2017-Oct-09 23:59N 35°27' E 139°47'0 0.1
2017-Oct-09 22:38N 35°27' E 139°47'0 0.1
2017-Oct-09 22:26N 35°27' E 139°47'13 1.2
2017-Oct-09 11:44N 35°14' E 139°47'210.2
2017-Oct-09 11:30N 35°12' E 139°47'510.5
2017-Oct-09 11:00N 35°07' E 139°45'  

Dump ship's entire track history